sensor_id;sensor_type;location;lat;lon;timestamp;pressure;altitude;pressure_sealevel;temperature;humidity
3748;BME280;1889;50.058;8.688;2024-02-26T00:01:04;98456.77;;;11.51;53.25
3748;BME280;1889;50.058;8.688;2024-02-26T00:03:34;98461.89;;;10.89;55.18
3748;BME280;1889;50.058;8.688;2024-02-26T00:06:04;98452.45;;;11.31;54.59
3748;BME280;1889;50.058;8.688;2024-02-26T00:08:34;98456.08;;;11.56;54.32
3748;BME280;1889;50.058;8.688;2024-02-26T00:11:06;98457.89;;;11.73;53.96
3748;BME280;1889;50.058;8.688;2024-02-26T00:13:36;98442.65;;;11.79;53.59
3748;BME280;1889;50.058;8.688;2024-02-26T00:16:06;98440.95;;;11.96;53.33
3748;BME280;1889;50.058;8.688;2024-02-26T00:18:36;98425.13;;;11.78;53.24
3748;BME280;1889;50.058;8.688;2024-02-26T00:21:11;98432.26;;;11.94;53.06
3748;BME280;1889;50.058;8.688;2024-02-26T00:23:41;98425.73;;;12.09;52.65
3748;BME280;1889;50.058;8.688;2024-02-26T00:26:10;98395.88;;;12.09;52.20
3748;BME280;1889;50.058;8.688;2024-02-26T00:28:40;98391.72;;;11.79;52.45
3748;BME280;1889;50.058;8.688;2024-02-26T00:31:13;98407.85;;;11.90;51.76
3748;BME280;1889;50.058;8.688;2024-02-26T00:33:42;98410.91;;;11.28;52.80
3748;BME280;1889;50.058;8.688;2024-02-26T00:36:12;98410.73;;;11.50;52.34
3748;BME280;1889;50.058;8.688;2024-02-26T00:38:41;98404.70;;;11.65;52.02
3748;BME280;1889;50.058;8.688;2024-02-26T00:41:13;98400.63;;;11.76;51.30
3748;BME280;1889;50.058;8.688;2024-02-26T00:43:42;98401.55;;;11.31;52.26
3748;BME280;1889;50.058;8.688;2024-02-26T00:46:12;98402.06;;;11.56;52.08
3748;BME280;1889;50.058;8.688;2024-02-26T00:48:42;98400.97;;;11.69;51.61
3748;BME280;1889;50.058;8.688;2024-02-26T00:51:11;98395.20;;;11.79;51.41
3748;BME280;1889;50.058;8.688;2024-02-26T00:54:09;98386.69;;;11.92;51.25
3748;BME280;1889;50.058;8.688;2024-02-26T00:56:41;98381.88;;;12.00;51.01
3748;BME280;1889;50.058;8.688;2024-02-26T00:59:10;98369.77;;;11.96;51.08
3748;BME280;1889;50.058;8.688;2024-02-26T01:01:40;98381.88;;;12.00;50.99
3748;BME280;1889;50.058;8.688;2024-02-26T01:04:09;98378.59;;;12.03;50.89
3748;BME280;1889;50.058;8.688;2024-02-26T01:06:40;98377.53;;;11.99;50.70
3748;BME280;1889;50.058;8.688;2024-02-26T01:09:09;98367.38;;;12.00;50.77
3748;BME280;1889;50.058;8.688;2024-02-26T01:11:39;98364.57;;;11.94;50.91
3748;BME280;1889;50.058;8.688;2024-02-26T01:14:08;98380.70;;;11.97;50.93
3748;BME280;1889;50.058;8.688;2024-02-26T01:16:40;98376.89;;;11.59;51.70
3748;BME280;1889;50.058;8.688;2024-02-26T01:19:16;98392.86;;;11.73;51.53
3748;BME280;1889;50.058;8.688;2024-02-26T01:21:46;98382.56;;;11.86;51.26
3748;BME280;1889;50.058;8.688;2024-02-26T01:24:15;98378.93;;;11.80;51.32
3748;BME280;1889;50.058;8.688;2024-02-26T01:26:46;98397.47;;;11.34;52.38
3748;BME280;1889;50.058;8.688;2024-02-26T01:29:16;98390.00;;;10.97;53.31
3748;BME280;1889;50.058;8.688;2024-02-26T01:31:46;98377.46;;;11.30;52.64
3748;BME280;1889;50.058;8.688;2024-02-26T01:34:16;98379.56;;;11.32;52.45
3748;BME280;1889;50.058;8.688;2024-02-26T01:36:46;98381.68;;;11.42;52.24
3748;BME280;1889;50.058;8.688;2024-02-26T01:39:16;98423.44;;;11.41;52.41
3748;BME280;1889;50.058;8.688;2024-02-26T01:41:45;98396.17;;;11.42;52.47
3748;BME280;1889;50.058;8.688;2024-02-26T01:44:15;98388.36;;;11.58;52.10
3748;BME280;1889;50.058;8.688;2024-02-26T01:46:45;98388.51;;;11.64;52.02
3748;BME280;1889;50.058;8.688;2024-02-26T01:49:15;98389.89;;;11.62;52.17
3748;BME280;1889;50.058;8.688;2024-02-26T01:51:45;98381.53;;;11.71;52.00
3748;BME280;1889;50.058;8.688;2024-02-26T01:54:15;98386.84;;;10.99;52.83
3748;BME280;1889;50.058;8.688;2024-02-26T01:56:44;98411.67;;;11.21;53.09
3748;BME280;1889;50.058;8.688;2024-02-26T01:59:14;98398.59;;;10.92;53.78
3748;BME280;1889;50.058;8.688;2024-02-26T02:01:45;98394.19;;;11.29;53.38
3748;BME280;1889;50.058;8.688;2024-02-26T02:04:16;98397.70;;;11.46;52.96
3748;BME280;1889;50.058;8.688;2024-02-26T02:06:46;98396.41;;;11.64;52.38
3748;BME280;1889;50.058;8.688;2024-02-26T02:09:16;98384.55;;;11.55;52.69
3748;BME280;1889;50.058;8.688;2024-02-26T02:11:46;98377.72;;;11.68;52.36
3748;BME280;1889;50.058;8.688;2024-02-26T02:14:17;98389.33;;;11.74;52.23
3748;BME280;1889;50.058;8.688;2024-02-26T02:16:47;98415.26;;;11.73;52.31
3748;BME280;1889;50.058;8.688;2024-02-26T02:19:17;98424.48;;;11.73;52.30
3748;BME280;1889;50.058;8.688;2024-02-26T02:21:46;98431.32;;;11.77;52.17
3748;BME280;1889;50.058;8.688;2024-02-26T02:24:15;98431.86;;;11.84;51.82
3748;BME280;1889;50.058;8.688;2024-02-26T02:26:45;98410.75;;;11.58;52.48
3748;BME280;1889;50.058;8.688;2024-02-26T02:29:15;98408.53;;;11.76;52.29
3748;BME280;1889;50.058;8.688;2024-02-26T02:31:44;98411.12;;;11.42;53.18
3748;BME280;1889;50.058;8.688;2024-02-26T02:34:14;98425.26;;;11.31;53.66
3748;BME280;1889;50.058;8.688;2024-02-26T02:36:51;98433.27;;;11.11;54.01
3748;BME280;1889;50.058;8.688;2024-02-26T02:42:48;98431.59;;;10.62;55.92
3748;BME280;1889;50.058;8.688;2024-02-26T02:45:17;98436.10;;;11.06;54.89
3748;BME280;1889;50.058;8.688;2024-02-26T02:47:46;98423.94;;;11.31;54.41
3748;BME280;1889;50.058;8.688;2024-02-26T02:50:16;98430.41;;;11.42;54.20
3748;BME280;1889;50.058;8.688;2024-02-26T02:52:45;98430.66;;;11.55;54.13
3748;BME280;1889;50.058;8.688;2024-02-26T02:55:15;98422.73;;;11.11;54.96
3748;BME280;1889;50.058;8.688;2024-02-26T02:57:45;98420.47;;;11.12;55.44
3748;BME280;1889;50.058;8.688;2024-02-26T03:00:14;98431.82;;;11.03;55.72
3748;BME280;1889;50.058;8.688;2024-02-26T03:02:44;98434.22;;;11.18;55.58
3748;BME280;1889;50.058;8.688;2024-02-26T03:05:14;98438.36;;;10.86;56.32
3748;BME280;1889;50.058;8.688;2024-02-26T03:07:43;98434.59;;;11.11;55.91
3748;BME280;1889;50.058;8.688;2024-02-26T03:10:13;98443.38;;;10.72;56.73
3748;BME280;1889;50.058;8.688;2024-02-26T03:12:42;98442.52;;;11.00;56.48
3748;BME280;1889;50.058;8.688;2024-02-26T03:15:11;98433.47;;;10.68;57.05
3748;BME280;1889;50.058;8.688;2024-02-26T03:17:41;98438.74;;;10.19;59.30
3748;BME280;1889;50.058;8.688;2024-02-26T03:20:10;98448.98;;;10.64;58.03
3748;BME280;1889;50.058;8.688;2024-02-26T03:22:40;98451.46;;;10.96;57.27
3748;BME280;1889;50.058;8.688;2024-02-26T03:25:09;98442.68;;;11.06;56.80
3748;BME280;1889;50.058;8.688;2024-02-26T03:27:38;98447.72;;;11.02;56.92
3748;BME280;1889;50.058;8.688;2024-02-26T03:30:09;98450.94;;;11.17;56.83
3748;BME280;1889;50.058;8.688;2024-02-26T03:32:39;98440.47;;;11.34;56.80
3748;BME280;1889;50.058;8.688;2024-02-26T03:35:09;98446.28;;;11.41;56.63
3748;BME280;1889;50.058;8.688;2024-02-26T03:37:38;98444.22;;;11.56;56.19
3748;BME280;1889;50.058;8.688;2024-02-26T03:40:08;98442.66;;;11.61;56.26
3748;BME280;1889;50.058;8.688;2024-02-26T03:42:38;98447.48;;;11.70;55.98
3748;BME280;1889;50.058;8.688;2024-02-26T03:45:07;98441.41;;;11.78;55.88
3748;BME280;1889;50.058;8.688;2024-02-26T03:47:38;98437.52;;;11.76;55.64
3748;BME280;1889;50.058;8.688;2024-02-26T03:50:10;98435.30;;;10.77;58.03
3748;BME280;1889;50.058;8.688;2024-02-26T03:52:39;98435.73;;;11.14;57.51
3748;BME280;1889;50.058;8.688;2024-02-26T03:55:08;98445.36;;;11.42;56.91
3748;BME280;1889;50.058;8.688;2024-02-26T03:57:38;98439.88;;;11.55;56.53
3748;BME280;1889;50.058;8.688;2024-02-26T04:00:08;98450.29;;;11.67;56.19
3748;BME280;1889;50.058;8.688;2024-02-26T04:02:38;98438.59;;;11.72;56.00
3748;BME280;1889;50.058;8.688;2024-02-26T04:05:10;98432.88;;;11.45;56.30
3748;BME280;1889;50.058;8.688;2024-02-26T04:07:40;98447.58;;;11.32;56.80
3748;BME280;1889;50.058;8.688;2024-02-26T04:10:10;98447.76;;;11.46;56.98
3748;BME280;1889;50.058;8.688;2024-02-26T04:12:40;98449.81;;;11.59;56.92
3748;BME280;1889;50.058;8.688;2024-02-26T04:15:10;98444.84;;;11.61;56.67
3748;BME280;1889;50.058;8.688;2024-02-26T04:17:40;98448.26;;;11.63;56.92
3748;BME280;1889;50.058;8.688;2024-02-26T04:20:13;98450.38;;;11.74;56.86
3748;BME280;1889;50.058;8.688;2024-02-26T04:22:42;98446.67;;;11.78;56.71
3748;BME280;1889;50.058;8.688;2024-02-26T04:25:12;98440.44;;;10.88;58.94
3748;BME280;1889;50.058;8.688;2024-02-26T04:27:42;98448.02;;;11.23;58.49
3748;BME280;1889;50.058;8.688;2024-02-26T04:30:11;98450.72;;;11.49;58.08
3748;BME280;1889;50.058;8.688;2024-02-26T04:32:41;98450.09;;;11.53;57.95
3748;BME280;1889;50.058;8.688;2024-02-26T04:35:10;98449.86;;;11.48;58.11
3748;BME280;1889;50.058;8.688;2024-02-26T04:37:40;98460.50;;;11.64;58.14
3748;BME280;1889;50.058;8.688;2024-02-26T04:40:09;98447.02;;;11.70;58.05
3748;BME280;1889;50.058;8.688;2024-02-26T04:42:38;98453.08;;;11.72;58.17
3748;BME280;1889;50.058;8.688;2024-02-26T04:45:08;98450.34;;;11.75;58.31
3748;BME280;1889;50.058;8.688;2024-02-26T04:47:38;98449.49;;;11.83;58.53
3748;BME280;1889;50.058;8.688;2024-02-26T04:50:08;98447.00;;;11.89;58.77
3748;BME280;1889;50.058;8.688;2024-02-26T04:52:37;98448.00;;;11.87;58.86
3748;BME280;1889;50.058;8.688;2024-02-26T04:55:07;98457.62;;;11.88;59.10
3748;BME280;1889;50.058;8.688;2024-02-26T04:57:36;98462.58;;;11.94;59.23
3748;BME280;1889;50.058;8.688;2024-02-26T05:00:06;98467.00;;;12.02;58.89
3748;BME280;1889;50.058;8.688;2024-02-26T05:02:36;98465.14;;;12.04;59.08
3748;BME280;1889;50.058;8.688;2024-02-26T05:05:07;98473.84;;;12.06;59.41
3748;BME280;1889;50.058;8.688;2024-02-26T05:07:41;98470.33;;;11.79;60.62
3748;BME280;1889;50.058;8.688;2024-02-26T05:10:11;98467.78;;;11.68;60.95
3748;BME280;1889;50.058;8.688;2024-02-26T05:12:41;98467.78;;;11.68;61.25
3748;BME280;1889;50.058;8.688;2024-02-26T05:15:10;98467.25;;;11.70;61.59
3748;BME280;1889;50.058;8.688;2024-02-26T05:17:41;98467.30;;;11.78;61.46
3748;BME280;1889;50.058;8.688;2024-02-26T05:20:11;98468.69;;;11.85;61.42
3748;BME280;1889;50.058;8.688;2024-02-26T05:22:40;98467.77;;;11.87;61.45
3748;BME280;1889;50.058;8.688;2024-02-26T05:25:10;98473.21;;;11.83;61.59
3748;BME280;1889;50.058;8.688;2024-02-26T05:27:39;98464.53;;;11.63;62.03
3748;BME280;1889;50.058;8.688;2024-02-26T05:30:09;98464.36;;;11.02;65.02
3748;BME280;1889;50.058;8.688;2024-02-26T05:32:39;98469.30;;;11.00;65.13
3748;BME280;1889;50.058;8.688;2024-02-26T05:35:09;98476.45;;;11.25;64.48
3748;BME280;1889;50.058;8.688;2024-02-26T05:37:38;98467.75;;;11.42;64.07
3748;BME280;1889;50.058;8.688;2024-02-26T05:40:08;98461.27;;;11.58;63.66
3748;BME280;1889;50.058;8.688;2024-02-26T05:42:37;98471.38;;;11.67;63.18
3748;BME280;1889;50.058;8.688;2024-02-26T05:45:07;98471.59;;;11.71;63.01
3748;BME280;1889;50.058;8.688;2024-02-26T05:47:36;98469.35;;;11.72;62.86
3748;BME280;1889;50.058;8.688;2024-02-26T05:50:11;98475.27;;;11.77;62.67
3748;BME280;1889;50.058;8.688;2024-02-26T05:52:40;98479.88;;;11.82;62.57
3748;BME280;1889;50.058;8.688;2024-02-26T05:55:10;98476.06;;;11.79;62.32
3748;BME280;1889;50.058;8.688;2024-02-26T05:57:41;98477.77;;;11.80;62.30
3748;BME280;1889;50.058;8.688;2024-02-26T06:00:11;98478.77;;;11.77;62.27
3748;BME280;1889;50.058;8.688;2024-02-26T06:02:41;98474.74;;;11.79;62.19
3748;BME280;1889;50.058;8.688;2024-02-26T06:05:10;98477.91;;;11.77;62.41
3748;BME280;1889;50.058;8.688;2024-02-26T06:07:40;98472.24;;;11.76;62.77
3748;BME280;1889;50.058;8.688;2024-02-26T06:10:10;98481.66;;;11.81;62.85
3748;BME280;1889;50.058;8.688;2024-02-26T06:12:41;98476.80;;;11.72;62.96
3748;BME280;1889;50.058;8.688;2024-02-26T06:15:10;98483.45;;;11.71;63.20
3748;BME280;1889;50.058;8.688;2024-02-26T06:17:40;98488.06;;;11.76;63.35
3748;BME280;1889;50.058;8.688;2024-02-26T06:20:10;98488.72;;;11.71;63.23
3748;BME280;1889;50.058;8.688;2024-02-26T06:22:41;98491.69;;;11.73;63.46
3748;BME280;1889;50.058;8.688;2024-02-26T06:25:11;98497.63;;;11.68;63.55
3748;BME280;1889;50.058;8.688;2024-02-26T06:27:40;98498.70;;;11.74;63.39
3748;BME280;1889;50.058;8.688;2024-02-26T06:30:10;98503.16;;;11.72;62.98
3748;BME280;1889;50.058;8.688;2024-02-26T06:32:39;98512.63;;;11.49;63.39
3748;BME280;1889;50.058;8.688;2024-02-26T06:35:09;98515.03;;;11.54;63.29
3748;BME280;1889;50.058;8.688;2024-02-26T06:37:39;98526.12;;;11.60;63.15
3748;BME280;1889;50.058;8.688;2024-02-26T06:40:09;98530.23;;;11.57;63.38
3748;BME280;1889;50.058;8.688;2024-02-26T06:42:38;98531.23;;;11.55;63.44
3748;BME280;1889;50.058;8.688;2024-02-26T06:45:13;98539.89;;;11.48;63.57
3748;BME280;1889;50.058;8.688;2024-02-26T06:47:43;98549.11;;;11.48;63.76
3748;BME280;1889;50.058;8.688;2024-02-26T06:50:13;98552.20;;;11.47;63.79
3748;BME280;1889;50.058;8.688;2024-02-26T06:52:44;98546.88;;;11.49;63.94
3748;BME280;1889;50.058;8.688;2024-02-26T06:55:14;98548.16;;;11.40;64.23
3748;BME280;1889;50.058;8.688;2024-02-26T06:57:43;98555.07;;;11.43;64.23
3748;BME280;1889;50.058;8.688;2024-02-26T07:00:13;98559.16;;;11.40;64.29
3748;BME280;1889;50.058;8.688;2024-02-26T07:02:44;98552.56;;;11.40;64.25
3748;BME280;1889;50.058;8.688;2024-02-26T07:05:13;98555.80;;;11.36;64.31
3748;BME280;1889;50.058;8.688;2024-02-26T07:07:43;98567.41;;;11.32;64.46
3748;BME280;1889;50.058;8.688;2024-02-26T07:10:13;98573.42;;;11.26;64.80
3748;BME280;1889;50.058;8.688;2024-02-26T07:12:42;98575.63;;;11.06;65.10
3748;BME280;1889;50.058;8.688;2024-02-26T07:15:12;98579.45;;;11.09;65.39
3748;BME280;1889;50.058;8.688;2024-02-26T07:17:41;98581.73;;;11.17;65.39
3748;BME280;1889;50.058;8.688;2024-02-26T07:20:12;98588.16;;;11.20;65.55
3748;BME280;1889;50.058;8.688;2024-02-26T07:22:42;98589.58;;;11.18;65.74
3748;BME280;1889;50.058;8.688;2024-02-26T07:25:12;98594.56;;;11.14;65.86
3748;BME280;1889;50.058;8.688;2024-02-26T07:27:41;98594.85;;;11.08;66.12
3748;BME280;1889;50.058;8.688;2024-02-26T07:30:11;98600.81;;;11.12;66.14
3748;BME280;1889;50.058;8.688;2024-02-26T07:32:41;98596.38;;;10.73;67.45
3748;BME280;1889;50.058;8.688;2024-02-26T07:35:10;98600.85;;;11.01;67.17
3748;BME280;1889;50.058;8.688;2024-02-26T07:37:39;98599.38;;;11.04;67.04
3748;BME280;1889;50.058;8.688;2024-02-26T07:40:09;98599.13;;;11.11;67.02
3748;BME280;1889;50.058;8.688;2024-02-26T07:42:39;98605.38;;;11.08;67.25
3748;BME280;1889;50.058;8.688;2024-02-26T07:45:08;98603.55;;;11.10;67.70
3748;BME280;1889;50.058;8.688;2024-02-26T07:47:38;98610.83;;;11.03;67.94
3748;BME280;1889;50.058;8.688;2024-02-26T07:50:09;98605.20;;;11.02;68.13
3748;BME280;1889;50.058;8.688;2024-02-26T07:52:40;98608.53;;;10.96;68.47
3748;BME280;1889;50.058;8.688;2024-02-26T07:55:09;98604.69;;;10.94;68.55
3748;BME280;1889;50.058;8.688;2024-02-26T07:57:43;98610.73;;;10.76;69.26
3748;BME280;1889;50.058;8.688;2024-02-26T08:00:13;98611.45;;;11.00;69.11
3748;BME280;1889;50.058;8.688;2024-02-26T08:02:44;98609.57;;;11.12;68.55
3748;BME280;1889;50.058;8.688;2024-02-26T08:05:15;98611.34;;;11.12;68.36
3748;BME280;1889;50.058;8.688;2024-02-26T08:07:44;98610.36;;;11.14;68.20
3748;BME280;1889;50.058;8.688;2024-02-26T08:10:14;98620.04;;;11.14;68.10
3748;BME280;1889;50.058;8.688;2024-02-26T08:12:43;98618.64;;;10.86;68.89
3748;BME280;1889;50.058;8.688;2024-02-26T08:15:13;98621.72;;;10.86;69.21
3748;BME280;1889;50.058;8.688;2024-02-26T08:17:43;98627.94;;;11.03;68.97
3748;BME280;1889;50.058;8.688;2024-02-26T08:20:12;98623.07;;;11.15;68.59
3748;BME280;1889;50.058;8.688;2024-02-26T08:22:42;98630.84;;;11.18;68.62
3748;BME280;1889;50.058;8.688;2024-02-26T08:25:11;98627.88;;;11.15;68.58
3748;BME280;1889;50.058;8.688;2024-02-26T08:27:40;98623.19;;;11.22;68.35
3748;BME280;1889;50.058;8.688;2024-02-26T08:30:10;98625.54;;;11.28;68.04
3748;BME280;1889;50.058;8.688;2024-02-26T08:32:42;98619.11;;;11.25;68.16
3748;BME280;1889;50.058;8.688;2024-02-26T08:35:12;98621.53;;;11.29;68.35
3748;BME280;1889;50.058;8.688;2024-02-26T08:37:48;98623.53;;;11.04;69.18
3748;BME280;1889;50.058;8.688;2024-02-26T08:40:14;98623.20;;;11.12;69.37
3748;BME280;1889;50.058;8.688;2024-02-26T08:42:44;98627.25;;;11.29;69.12
3748;BME280;1889;50.058;8.688;2024-02-26T08:45:13;98633.48;;;11.18;69.78
3748;BME280;1889;50.058;8.688;2024-02-26T08:47:44;98640.98;;;11.06;70.27
3748;BME280;1889;50.058;8.688;2024-02-26T08:50:14;98643.43;;;11.01;70.84
3748;BME280;1889;50.058;8.688;2024-02-26T08:52:44;98642.30;;;11.27;69.97
3748;BME280;1889;50.058;8.688;2024-02-26T08:55:15;98636.98;;;11.37;69.61
3748;BME280;1889;50.058;8.688;2024-02-26T08:57:44;98635.20;;;11.37;69.42
3748;BME280;1889;50.058;8.688;2024-02-26T09:00:14;98637.37;;;11.38;69.46
3748;BME280;1889;50.058;8.688;2024-02-26T09:02:48;98642.13;;;11.40;69.60
3748;BME280;1889;50.058;8.688;2024-02-26T09:05:17;98649.34;;;11.45;69.70
3748;BME280;1889;50.058;8.688;2024-02-26T09:07:47;98642.57;;;11.50;69.62
3748;BME280;1889;50.058;8.688;2024-02-26T09:10:16;98646.83;;;11.52;69.90
3748;BME280;1889;50.058;8.688;2024-02-26T09:12:45;98644.77;;;11.30;70.60
3748;BME280;1889;50.058;8.688;2024-02-26T09:15:15;98649.39;;;11.35;70.73
3748;BME280;1889;50.058;8.688;2024-02-26T09:17:44;98652.78;;;11.47;70.52
3748;BME280;1889;50.058;8.688;2024-02-26T09:20:14;98654.14;;;11.27;71.22
3748;BME280;1889;50.058;8.688;2024-02-26T09:22:43;98653.76;;;11.44;70.89
3748;BME280;1889;50.058;8.688;2024-02-26T09:25:13;98654.66;;;11.35;71.19
3748;BME280;1889;50.058;8.688;2024-02-26T09:27:44;98653.81;;;11.53;71.23
3748;BME280;1889;50.058;8.688;2024-02-26T09:30:14;98648.06;;;11.64;70.94
3748;BME280;1889;50.058;8.688;2024-02-26T09:32:50;98662.27;;;11.80;70.81
3748;BME280;1889;50.058;8.688;2024-02-26T09:35:16;98660.99;;;11.89;70.80
3748;BME280;1889;50.058;8.688;2024-02-26T09:37:45;98656.64;;;12.06;70.08
3748;BME280;1889;50.058;8.688;2024-02-26T09:40:17;98656.08;;;12.08;69.96
3748;BME280;1889;50.058;8.688;2024-02-26T09:42:46;98660.69;;;11.76;70.89
3748;BME280;1889;50.058;8.688;2024-02-26T09:45:19;98663.59;;;11.80;70.94
3748;BME280;1889;50.058;8.688;2024-02-26T09:47:50;98666.16;;;11.71;70.95
3748;BME280;1889;50.058;8.688;2024-02-26T09:50:21;98661.19;;;11.75;70.80
3748;BME280;1889;50.058;8.688;2024-02-26T09:52:51;98661.48;;;11.97;70.50
3748;BME280;1889;50.058;8.688;2024-02-26T09:55:21;98662.18;;;12.00;69.92
3748;BME280;1889;50.058;8.688;2024-02-26T09:57:52;98674.17;;;11.89;70.56
3748;BME280;1889;50.058;8.688;2024-02-26T10:00:22;98672.86;;;11.89;70.64
3748;BME280;1889;50.058;8.688;2024-02-26T10:02:52;98670.69;;;12.07;70.70
3748;BME280;1889;50.058;8.688;2024-02-26T10:05:25;98674.94;;;12.09;70.38
3748;BME280;1889;50.058;8.688;2024-02-26T10:07:55;98673.09;;;11.93;70.10
3748;BME280;1889;50.058;8.688;2024-02-26T10:10:26;98672.27;;;12.01;70.30
3748;BME280;1889;50.058;8.688;2024-02-26T10:12:57;98670.19;;;11.99;70.14
3748;BME280;1889;50.058;8.688;2024-02-26T10:15:27;98674.80;;;11.94;70.64
3748;BME280;1889;50.058;8.688;2024-02-26T10:17:57;98678.62;;;12.15;70.45
3748;BME280;1889;50.058;8.688;2024-02-26T10:20:26;98676.70;;;12.28;69.88
3748;BME280;1889;50.058;8.688;2024-02-26T10:22:56;98681.13;;;11.81;71.24
3748;BME280;1889;50.058;8.688;2024-02-26T10:25:26;98687.73;;;12.00;71.50
3748;BME280;1889;50.058;8.688;2024-02-26T10:27:55;98684.30;;;11.98;71.87
3748;BME280;1889;50.058;8.688;2024-02-26T10:30:26;98678.09;;;12.26;71.06
3748;BME280;1889;50.058;8.688;2024-02-26T10:32:56;98685.04;;;12.37;70.71
3748;BME280;1889;50.058;8.688;2024-02-26T10:35:26;98698.46;;;11.66;73.61
3748;BME280;1889;50.058;8.688;2024-02-26T10:37:56;98699.78;;;11.66;74.21
3748;BME280;1889;50.058;8.688;2024-02-26T10:40:27;98692.88;;;12.11;73.03
3748;BME280;1889;50.058;8.688;2024-02-26T10:42:58;98690.94;;;12.42;72.16
3748;BME280;1889;50.058;8.688;2024-02-26T10:45:29;98691.75;;;12.53;71.38
3748;BME280;1889;50.058;8.688;2024-02-26T10:47:59;98695.45;;;12.40;71.55
3748;BME280;1889;50.058;8.688;2024-02-26T10:50:29;98701.22;;;12.48;71.96
3748;BME280;1889;50.058;8.688;2024-02-26T10:52:58;98705.77;;;12.81;72.08
3748;BME280;1889;50.058;8.688;2024-02-26T10:55:28;98710.47;;;13.19;70.44
3748;BME280;1889;50.058;8.688;2024-02-26T10:57:57;98714.25;;;13.22;70.04
3748;BME280;1889;50.058;8.688;2024-02-26T11:00:27;98707.09;;;13.50;69.64
3748;BME280;1889;50.058;8.688;2024-02-26T11:02:59;98713.78;;;12.88;70.43
3748;BME280;1889;50.058;8.688;2024-02-26T11:05:30;98711.43;;;12.99;70.84
3748;BME280;1889;50.058;8.688;2024-02-26T11:08:02;98713.04;;;13.20;70.12
3748;BME280;1889;50.058;8.688;2024-02-26T11:10:33;98722.34;;;12.66;70.19
3748;BME280;1889;50.058;8.688;2024-02-26T11:13:03;98718.34;;;12.84;70.50
3748;BME280;1889;50.058;8.688;2024-02-26T11:15:34;98715.11;;;12.96;70.50
3748;BME280;1889;50.058;8.688;2024-02-26T11:18:04;98712.08;;;13.30;69.73
3748;BME280;1889;50.058;8.688;2024-02-26T11:20:38;98718.58;;;13.06;70.31
3748;BME280;1889;50.058;8.688;2024-02-26T11:23:08;98718.39;;;13.27;70.15
3748;BME280;1889;50.058;8.688;2024-02-26T11:25:37;98721.36;;;13.21;71.20
3748;BME280;1889;50.058;8.688;2024-02-26T11:28:12;98728.61;;;13.08;72.36
3748;BME280;1889;50.058;8.688;2024-02-26T11:30:44;98723.82;;;13.24;71.12
3748;BME280;1889;50.058;8.688;2024-02-26T11:33:15;98723.55;;;13.55;70.42
3748;BME280;1889;50.058;8.688;2024-02-26T11:35:46;98724.45;;;13.71;70.14
3748;BME280;1889;50.058;8.688;2024-02-26T11:38:20;98726.38;;;13.52;70.20
3748;BME280;1889;50.058;8.688;2024-02-26T11:40:50;98727.25;;;13.26;69.97
3748;BME280;1889;50.058;8.688;2024-02-26T11:43:49;98723.75;;;13.34;69.75
3748;BME280;1889;50.058;8.688;2024-02-26T11:45:54;98728.50;;;13.28;70.01
3748;BME280;1889;50.058;8.688;2024-02-26T11:48:25;98727.45;;;13.48;69.45
3748;BME280;1889;50.058;8.688;2024-02-26T11:50:58;98721.23;;;13.49;69.81
3748;BME280;1889;50.058;8.688;2024-02-26T11:53:30;98731.02;;;13.47;68.88
3748;BME280;1889;50.058;8.688;2024-02-26T11:56:20;98734.92;;;13.22;69.60
3748;BME280;1889;50.058;8.688;2024-02-26T11:58:59;98723.48;;;13.48;68.76
3748;BME280;1889;50.058;8.688;2024-02-26T12:01:46;98721.79;;;13.80;67.90
3748;BME280;1889;50.058;8.688;2024-02-26T12:04:24;98719.72;;;13.78;68.19
3748;BME280;1889;50.058;8.688;2024-02-26T12:06:56;98722.28;;;13.38;69.42
3748;BME280;1889;50.058;8.688;2024-02-26T12:09:38;98720.03;;;13.63;69.48
3748;BME280;1889;50.058;8.688;2024-02-26T12:12:09;98715.88;;;13.50;69.71
3748;BME280;1889;50.058;8.688;2024-02-26T12:14:39;98721.84;;;13.87;68.74
3748;BME280;1889;50.058;8.688;2024-02-26T12:17:20;98722.52;;;13.99;67.97
3748;BME280;1889;50.058;8.688;2024-02-26T12:19:50;98721.71;;;14.05;67.50
3748;BME280;1889;50.058;8.688;2024-02-26T12:22:21;98723.22;;;14.02;64.94
3748;BME280;1889;50.058;8.688;2024-02-26T12:24:59;98729.94;;;13.92;66.20
3748;BME280;1889;50.058;8.688;2024-02-26T12:27:26;98731.23;;;13.77;66.97
3748;BME280;1889;50.058;8.688;2024-02-26T12:29:55;98725.28;;;13.38;67.17
3748;BME280;1889;50.058;8.688;2024-02-26T12:32:25;98730.27;;;13.53;67.04
3748;BME280;1889;50.058;8.688;2024-02-26T12:34:54;98733.67;;;13.38;67.37
3748;BME280;1889;50.058;8.688;2024-02-26T12:37:23;98738.09;;;13.55;66.61
3748;BME280;1889;50.058;8.688;2024-02-26T12:39:53;98734.52;;;13.47;66.60
3748;BME280;1889;50.058;8.688;2024-02-26T12:42:22;98738.66;;;13.53;67.38
3748;BME280;1889;50.058;8.688;2024-02-26T12:44:53;98740.52;;;13.51;67.92
3748;BME280;1889;50.058;8.688;2024-02-26T12:47:22;98748.44;;;13.59;67.46
3748;BME280;1889;50.058;8.688;2024-02-26T12:49:51;98756.06;;;13.48;67.89
3748;BME280;1889;50.058;8.688;2024-02-26T12:52:21;98761.91;;;13.88;67.30
3748;BME280;1889;50.058;8.688;2024-02-26T12:54:51;98758.20;;;13.83;67.27
3748;BME280;1889;50.058;8.688;2024-02-26T12:57:20;98756.78;;;13.26;68.58
3748;BME280;1889;50.058;8.688;2024-02-26T12:59:50;98757.74;;;13.75;67.52
3748;BME280;1889;50.058;8.688;2024-02-26T13:02:19;98759.03;;;13.42;66.00
3748;BME280;1889;50.058;8.688;2024-02-26T13:04:49;98753.77;;;13.06;68.02
3748;BME280;1889;50.058;8.688;2024-02-26T13:07:20;98759.94;;;13.67;67.64
3748;BME280;1889;50.058;8.688;2024-02-26T13:09:49;98767.72;;;13.70;66.89
3748;BME280;1889;50.058;8.688;2024-02-26T13:12:18;98774.05;;;13.92;66.35
3748;BME280;1889;50.058;8.688;2024-02-26T13:14:48;98775.95;;;13.55;66.71
3748;BME280;1889;50.058;8.688;2024-02-26T13:17:21;98782.00;;;13.83;66.44
3748;BME280;1889;50.058;8.688;2024-02-26T13:19:51;98781.64;;;13.98;65.77
3748;BME280;1889;50.058;8.688;2024-02-26T13:22:23;98782.22;;;14.11;65.86
3748;BME280;1889;50.058;8.688;2024-02-26T13:24:59;98787.92;;;14.04;65.02
3748;BME280;1889;50.058;8.688;2024-02-26T13:27:30;98792.27;;;14.13;65.49
3748;BME280;1889;50.058;8.688;2024-02-26T13:30:10;98789.92;;;14.49;64.61
3748;BME280;1889;50.058;8.688;2024-02-26T13:32:41;98782.50;;;13.98;64.46
3748;BME280;1889;50.058;8.688;2024-02-26T13:35:12;98781.06;;;14.17;64.68
3748;BME280;1889;50.058;8.688;2024-02-26T13:37:42;98780.81;;;14.46;63.79
3748;BME280;1889;50.058;8.688;2024-02-26T13:40:11;98782.69;;;14.60;63.49
3748;BME280;1889;50.058;8.688;2024-02-26T13:42:41;98789.06;;;14.64;63.14